AVA312 MROC-MSLP
Flight info
| Callsign | AVA312 |
|---|---|
| Flight time | N/A |
| Altitude | 38000 |
| Route | NANJO3U ULAPO DCT ALTEG UG436 AMUVO AMUVO2M |
| Aircraft | A20N/M-SDE2E3FGHIRWXY/LB1 |
Departure
| Time | 2026-04-29 02:20 |
|---|---|
| Airport | Juan Santamaría International Airport (MROC) |
Arrival
| Time | N/A |
|---|---|
| Airport | El Salvador International Airport Saint Óscar Arnulfo Romero y Galdámez (MSLP) |
| Time | Latitude | Longitude | Altitude | Speed | Heading |
|---|---|---|---|---|---|
| 2026-04-29 01:55 | 9.99758 | -84.20319 | 3036 ft | 0 kts | 340° |
| 2026-04-29 02:10 | 9.99757 | -84.20319 | 3036 ft | 0 kts | 341° |
| 2026-04-29 02:11 | 9.99744 | -84.20315 | 3035 ft | 2 kts | 348° |
| 2026-04-29 02:11 | 9.99729 | -84.20311 | 3035 ft | 2 kts | 345° |
| 2026-04-29 02:12 | 9.99715 | -84.20307 | 3034 ft | 2 kts | 346° |
| 2026-04-29 02:12 | 9.99710 | -84.20306 | 3034 ft | 0 kts | 347° |
| 2026-04-29 02:12 | 9.99706 | -84.20305 | 3034 ft | 0 kts | 292° |
| 2026-04-29 02:12 | 9.99705 | -84.20301 | 3034 ft | 0 kts | 252° |
| 2026-04-29 02:13 | 9.99705 | -84.20307 | 3034 ft | 2 kts | 261° |
| 2026-04-29 02:13 | 9.99702 | -84.20315 | 3034 ft | 1 kts | 247° |
| 2026-04-29 02:13 | 9.99701 | -84.20318 | 3033 ft | 0 kts | 248° |
| 2026-04-29 02:15 | 9.99695 | -84.20334 | 3033 ft | 5 kts | 248° |
| 2026-04-29 02:15 | 9.99670 | -84.20397 | 3029 ft | 13 kts | 249° |
| 2026-04-29 02:15 | 9.99629 | -84.20508 | 3023 ft | 19 kts | 249° |
| 2026-04-29 02:15 | 9.99575 | -84.20652 | 3015 ft | 23 kts | 249° |
| 2026-04-29 02:16 | 9.99519 | -84.20801 | 3007 ft | 9 kts | 250° |
| 2026-04-29 02:16 | 9.99495 | -84.20866 | 3004 ft | 13 kts | 249° |
| 2026-04-29 02:16 | 9.99454 | -84.20975 | 2998 ft | 19 kts | 249° |
| 2026-04-29 02:16 | 9.99402 | -84.21113 | 2991 ft | 22 kts | 249° |
| 2026-04-29 02:17 | 9.99343 | -84.21272 | 2983 ft | 25 kts | 249° |
| 2026-04-29 02:17 | 9.99289 | -84.21413 | 2975 ft | 20 kts | 249° |
| 2026-04-29 02:17 | 9.99233 | -84.21561 | 2965 ft | 24 kts | 249° |
| 2026-04-29 02:17 | 9.99169 | -84.21733 | 2956 ft | 27 kts | 249° |
| 2026-04-29 02:18 | 9.99116 | -84.21875 | 2949 ft | 19 kts | 249° |
| 2026-04-29 02:18 | 9.99099 | -84.22008 | 2941 ft | 11 kts | 278° |
| 2026-04-29 02:18 | 9.99097 | -84.22089 | 2936 ft | 13 kts | 252° |
| 2026-04-29 02:18 | 9.99055 | -84.22188 | 2933 ft | 16 kts | 233° |
| 2026-04-29 02:19 | 9.98977 | -84.22199 | 2935 ft | 9 kts | 159° |
| 2026-04-29 02:19 | 9.98922 | -84.22176 | 2938 ft | 7 kts | 152° |
| 2026-04-29 02:19 | 9.98918 | -84.22142 | 2940 ft | 6 kts | 70° |
| 2026-04-29 02:19 | 9.99011 | -84.21894 | 2952 ft | 72 kts | 69° |
| 2026-04-29 02:20 | 9.99264 | -84.21214 | 2985 ft | 131 kts | 70° |
| 2026-04-29 02:20 | 9.99628 | -84.20222 | 3176 ft | 162 kts | 70° |
| 2026-04-29 02:20 | 10.00032 | -84.19166 | 3708 ft | 163 kts | 66° |
| 2026-04-29 02:20 | 10.00793 | -84.18340 | 4247 ft | 167 kts | 21° |
| 2026-04-29 02:21 | 10.01933 | -84.18443 | 4818 ft | 173 kts | 332° |
| 2026-04-29 02:21 | 10.02917 | -84.19235 | 5190 ft | 192 kts | 322° |
| 2026-04-29 02:21 | 10.03984 | -84.20145 | 5614 ft | 209 kts | 324° |
| 2026-04-29 02:21 | 10.05127 | -84.21133 | 6067 ft | 228 kts | 314° |